Time;durP1;ratioP1;P1;durP2;ratioP2;P2;SDS_P1;SDS_P2;PMS_P1;PMS_P2;Temp;Humidity;BMP_temperature;BMP_pressure;BME280_temperature;BME280_humidity;BME280_pressure;Samples;Min_cycle;Max_cycle;Signal;HPM_P1;HPM_P2
2022/07/01 00:01:30;;;;;;;5.03;4.47;;;21.60;90.70;;;;;;639250;223;26802;-66
2022/07/01 00:03:59;;;;;;;5.20;4.72;;;21.60;91.40;;;;;;640332;224;26558;-66
2022/07/01 00:06:26;;;;;;;5.28;4.90;;;21.60;91.50;;;;;;639757;224;26536;-66
2022/07/01 00:08:53;;;;;;;5.45;5.03;;;21.60;91.40;;;;;;639538;222;27231;-66
2022/07/01 00:11:20;;;;;;;5.22;4.82;;;21.50;90.60;;;;;;639651;224;26566;-66
2022/07/01 00:13:48;;;;;;;5.10;4.70;;;21.50;90.30;;;;;;639628;224;27067;-65
2022/07/01 00:16:16;;;;;;;4.80;4.40;;;21.50;91.30;;;;;;639565;224;26507;-65
2022/07/01 00:18:43;;;;;;;5.15;4.75;;;21.50;91.80;;;;;;639610;224;26520;-65
2022/07/01 00:21:12;;;;;;;4.80;4.50;;;21.40;91.60;;;;;;639322;222;26530;-65
2022/07/01 00:23:40;;;;;;;5.45;4.95;;;21.40;92.10;;;;;;639323;224;26521;-66
2022/07/01 00:26:08;;;;;;;5.18;4.78;;;21.40;92.20;;;;;;639266;224;26498;-66
2022/07/01 00:28:35;;;;;;;4.95;4.47;;;21.40;92.10;;;;;;639155;224;26949;-67
2022/07/01 00:31:02;;;;;;;5.45;5.05;;;21.40;92.40;;;;;;639277;222;26541;-66
2022/07/01 00:33:30;;;;;;;5.32;4.93;;;21.30;92.90;;;;;;639392;224;26523;-66
2022/07/01 00:35:58;;;;;;;5.15;4.75;;;21.30;93.50;;;;;;639286;223;26510;-66
2022/07/01 00:38:25;;;;;;;5.50;5.10;;;21.30;93.30;;;;;;639086;224;26572;-66
2022/07/01 00:40:53;;;;;;;5.43;5.03;;;21.30;93.60;;;;;;638917;224;26586;-66
2022/07/01 00:43:22;;;;;;;5.50;5.00;;;21.30;93.10;;;;;;638956;224;26795;-67
2022/07/01 00:45:47;;;;;;;5.32;4.85;;;21.20;93.60;;;;;;638826;224;26555;-66
2022/07/01 00:48:14;;;;;;;5.28;4.78;;;21.20;93.40;;;;;;638963;224;26820;-66
2022/07/01 00:50:41;;;;;;;5.20;4.82;;;21.20;93.20;;;;;;638943;224;26579;-66
2022/07/01 00:53:09;;;;;;;6.03;5.53;;;21.20;92.70;;;;;;638990;224;26792;-67
2022/07/01 00:55:36;;;;;;;5.35;4.95;;;21.20;93.90;;;;;;638993;224;26555;-67
2022/07/01 00:58:03;;;;;;;5.62;5.22;;;21.20;93.60;;;;;;638957;224;26767;-66
2022/07/01 01:00:31;;;;;;;5.60;5.20;;;21.20;94.10;;;;;;638966;222;26582;-66
2022/07/01 01:02:58;;;;;;;5.70;5.30;;;21.20;94.50;;;;;;638994;225;26579;-66
2022/07/01 01:05:25;;;;;;;5.68;5.18;;;21.20;95.00;;;;;;638970;224;27277;-66
2022/07/01 01:07:52;;;;;;;5.72;5.32;;;21.10;95.70;;;;;;638946;219;26528;-66
2022/07/01 01:10:20;;;;;;;6.03;5.53;;;21.20;95.90;;;;;;638978;224;26796;-66
2022/07/01 01:12:47;;;;;;;5.57;5.18;;;21.10;95.00;;;;;;638984;224;26586;-66
2022/07/01 01:15:18;;;;;;;6.07;5.60;;;21.10;95.10;;;;;;640812;223;26559;-66
2022/07/01 01:17:46;;;;;;;5.57;5.18;;;21.10;96.00;;;;;;640120;225;26518;-66
2022/07/01 01:20:15;;;;;;;6.03;5.62;;;21.00;96.20;;;;;;639808;224;26643;-66
2022/07/01 01:22:44;;;;;;;5.95;5.55;;;21.00;96.10;;;;;;639815;223;26585;-66
2022/07/01 01:25:11;;;;;;;6.43;5.93;;;21.00;96.10;;;;;;639594;224;26514;-66
2022/07/01 01:27:38;;;;;;;6.68;6.18;;;21.00;96.30;;;;;;639537;224;26831;-66
2022/07/01 01:30:06;;;;;;;6.70;6.18;;;21.00;95.90;;;;;;639591;224;26537;-67
2022/07/01 01:32:33;;;;;;;5.55;5.15;;;21.00;97.50;;;;;;639341;225;26518;-66
2022/07/01 01:35:00;;;;;;;6.75;6.00;;;21.00;96.40;;;;;;639348;224;26749;-66
2022/07/01 01:37:28;;;;;;;6.78;6.18;;;20.90;97.10;;;;;;639280;224;26506;-66
2022/07/01 01:39:55;;;;;;;6.62;6.12;;;20.90;97.20;;;;;;639175;222;26778;-66
2022/07/01 01:42:22;;;;;;;6.80;6.30;;;20.90;97.20;;;;;;639261;224;26555;-67
2022/07/01 01:44:49;;;;;;;6.30;5.80;;;20.90;98.20;;;;;;639312;223;26482;-66
2022/07/01 01:47:17;;;;;;;6.85;6.18;;;21.00;98.90;;;;;;639243;224;26521;-66
2022/07/01 01:49:45;;;;;;;6.90;6.30;;;21.00;98.40;;;;;;639093;223;26590;-66
2022/07/01 01:52:13;;;;;;;6.75;6.18;;;20.90;97.70;;;;;;638960;224;26583;-66
2022/07/01 01:54:41;;;;;;;6.87;6.37;;;20.90;98.60;;;;;;639001;223;26530;-66
2022/07/01 01:57:08;;;;;;;7.03;6.43;;;20.90;98.70;;;;;;638969;223;26537;-67
2022/07/01 01:59:36;;;;;;;7.15;6.55;;;21.00;99.40;;;;;;638962;224;26629;-66
2022/07/01 02:02:03;;;;;;;7.05;6.45;;;20.90;98.20;;;;;;638938;223;27285;-66
2022/07/01 02:04:31;;;;;;;7.07;6.57;;;20.90;98.40;;;;;;638956;225;26571;-66
2022/07/01 02:06:59;;;;;;;7.65;7.05;;;20.80;99.20;;;;;;638875;224;26528;-66
2022/07/01 02:09:28;;;;;;;7.37;6.78;;;20.80;99.20;;;;;;638853;222;26574;-66
2022/07/01 02:11:54;;;;;;;6.65;6.15;;;20.80;99.90;;;;;;638875;224;26592;-66
2022/07/01 02:14:21;;;;;;;7.35;6.75;;;20.90;99.60;;;;;;638797;224;26572;-66
2022/07/01 02:16:49;;;;;;;6.78;6.18;;;20.90;99.90;;;;;;638760;223;26559;-66
2022/07/01 02:19:17;;;;;;;6.97;6.47;;;20.80;99.90;;;;;;638731;224;26619;-66
2022/07/01 02:21:45;;;;;;;7.12;6.60;;;20.80;99.90;;;;;;638780;224;26575;-66
2022/07/01 02:24:13;;;;;;;7.35;6.75;;;20.80;99.50;;;;;;638945;224;26572;-66
2022/07/01 02:26:42;;;;;;;7.25;6.65;;;20.80;99.30;;;;;;640728;223;26858;-66
2022/07/01 02:29:08;;;;;;;7.30;6.70;;;20.80;99.90;;;;;;640578;222;26560;-66
2022/07/01 02:31:36;;;;;;;7.05;6.47;;;20.80;99.90;;;;;;640020;224;26918;-65
2022/07/01 02:34:03;;;;;;;7.22;6.72;;;20.80;99.90;;;;;;639809;223;26578;-65
2022/07/01 02:36:30;;;;;;;8.10;7.40;;;20.80;99.90;;;;;;639622;224;26777;-65
2022/07/01 02:38:57;;;;;;;7.57;6.95;;;20.80;99.90;;;;;;639386;224;26519;-65
2022/07/01 02:41:24;;;;;;;7.90;7.30;;;20.80;99.90;;;;;;639614;223;26765;-65
2022/07/01 02:43:52;;;;;;;7.78;7.18;;;20.80;99.90;;;;;;639367;224;26532;-65
2022/07/01 02:46:19;;;;;;;7.47;6.87;;;20.80;99.90;;;;;;639290;224;26764;-65
2022/07/01 02:48:46;;;;;;;8.20;7.50;;;20.80;99.90;;;;;;639297;223;26506;-65
2022/07/01 02:51:14;;;;;;;7.47;6.87;;;20.80;99.90;;;;;;639208;223;26537;-65
2022/07/01 02:53:41;;;;;;;8.20;7.60;;;20.80;99.90;;;;;;639297;223;26515;-65
2022/07/01 02:56:09;;;;;;;8.13;7.43;;;20.80;99.90;;;;;;639275;224;26514;-65
2022/07/01 02:58:37;;;;;;;8.20;7.60;;;20.80;99.90;;;;;;639195;224;26513;-65
2022/07/01 03:01:04;;;;;;;8.23;7.53;;;20.80;99.90;;;;;;639095;224;26542;-65
2022/07/01 03:03:31;;;;;;;7.68;7.07;;;20.90;99.90;;;;;;638970;223;26575;-65
2022/07/01 03:05:59;;;;;;;8.77;8.07;;;20.90;99.90;;;;;;638894;224;26773;-66
2022/07/01 03:08:26;;;;;;;7.43;6.82;;;20.90;99.90;;;;;;638903;224;26522;-65
2022/07/01 03:10:53;;;;;;;8.55;7.85;;;20.90;99.90;;;;;;638876;224;26794;-66
2022/07/01 03:13:20;;;;;;;8.02;7.28;;;20.90;99.90;;;;;;638974;224;26557;-65
2022/07/01 03:15:47;;;;;;;8.48;7.78;;;20.90;99.90;;;;;;638946;224;26793;-65
2022/07/01 03:18:15;;;;;;;8.50;7.75;;;20.90;99.90;;;;;;638967;224;26523;-65
2022/07/01 03:20:42;;;;;;;8.45;7.65;;;20.90;99.90;;;;;;638904;224;26829;-65
2022/07/01 03:23:09;;;;;;;8.30;7.50;;;20.90;99.90;;;;;;638975;224;26566;-65
2022/07/01 03:25:37;;;;;;;8.35;7.65;;;20.90;99.90;;;;;;638948;224;27115;-65
2022/07/01 03:28:04;;;;;;;8.70;7.90;;;20.90;99.90;;;;;;638884;224;26569;-65
2022/07/01 03:30:31;;;;;;;8.57;7.87;;;21.00;99.90;;;;;;638947;223;26579;-65
2022/07/01 03:32:59;;;;;;;8.88;8.18;;;21.00;99.90;;;;;;639004;225;26596;-65
2022/07/01 03:38:00;;;;;;;7.87;7.25;;;21.00;99.90;;;;;;640396;223;26563;-65
2022/07/01 03:40:28;;;;;;;8.30;7.50;;;21.10;99.90;;;;;;640073;224;26565;-66
2022/07/01 03:42:56;;;;;;;8.15;7.45;;;21.10;99.90;;;;;;639737;224;26615;-65
2022/07/01 03:45:23;;;;;;;8.10;7.40;;;21.10;99.90;;;;;;639775;224;26568;-65
2022/07/01 03:47:51;;;;;;;8.25;7.50;;;21.10;99.90;;;;;;639486;224;26502;-65
2022/07/01 03:50:18;;;;;;;8.30;7.60;;;21.20;99.90;;;;;;639447;223;26881;-65
2022/07/01 03:52:45;;;;;;;9.00;8.10;;;21.20;99.90;;;;;;639880;224;26499;-65
2022/07/01 03:55:12;;;;;;;8.60;7.90;;;21.20;99.90;;;;;;639796;224;26736;-65
2022/07/01 03:57:39;;;;;;;8.55;7.85;;;21.30;99.90;;;;;;639664;224;26533;-65
2022/07/01 04:00:07;;;;;;;8.65;7.95;;;21.30;99.90;;;;;;639626;224;26748;-65
2022/07/01 04:02:34;;;;;;;9.18;8.43;;;21.30;99.90;;;;;;639505;225;26514;-65
2022/07/01 04:05:02;;;;;;;9.25;8.50;;;21.40;99.90;;;;;;639258;223;26557;-65
2022/07/01 04:07:30;;;;;;;9.23;8.43;;;21.40;99.90;;;;;;639272;224;26511;-65
2022/07/01 04:09:57;;;;;;;8.82;8.02;;;21.40;99.90;;;;;;639234;222;26779;-65
2022/07/01 04:12:24;;;;;;;9.52;8.73;;;21.50;99.90;;;;;;639213;224;26526;-65
2022/07/01 04:14:51;;;;;;;8.20;7.47;;;21.50;99.90;;;;;;638951;224;26802;-65
2022/07/01 04:17:18;;;;;;;9.48;8.68;;;21.50;99.90;;;;;;638949;223;26570;-65
2022/07/01 04:19:46;;;;;;;8.80;8.10;;;21.60;99.90;;;;;;638946;224;26798;-65
2022/07/01 04:24:46;;;;;;;8.48;7.75;;;21.70;99.90;;;;;;639013;224;26555;-65
2022/07/01 04:27:13;;;;;;;9.18;8.48;;;21.80;99.90;;;;;;638898;224;26802;-65
2022/07/01 04:29:40;;;;;;;8.93;8.23;;;21.80;99.90;;;;;;638898;222;26586;-65
2022/07/01 04:32:07;;;;;;;9.65;8.85;;;22.00;99.90;;;;;;638965;224;26797;-65
2022/07/01 04:34:34;;;;;;;9.43;8.63;;;22.00;99.90;;;;;;638939;225;26524;-65
2022/07/01 04:37:02;;;;;;;8.70;8.00;;;22.10;99.90;;;;;;638932;224;26788;-65
2022/07/01 04:39:30;;;;;;;9.23;8.43;;;22.20;99.90;;;;;;638929;224;26595;-65
2022/07/01 04:41:59;;;;;;;10.20;9.38;;;22.30;99.90;;;;;;638978;224;26576;-65
2022/07/01 04:44:27;;;;;;;9.45;8.65;;;22.30;99.90;;;;;;638942;223;26768;-65
2022/07/01 04:46:55;;;;;;;9.57;8.68;;;22.40;99.70;;;;;;638983;225;26539;-64
2022/07/01 04:49:23;;;;;;;9.88;9.07;;;22.50;99.90;;;;;;640392;222;26584;-65
2022/07/01 04:51:51;;;;;;;9.00;8.30;;;22.50;99.90;;;;;;640220;224;26539;-65
2022/07/01 04:54:18;;;;;;;9.43;8.63;;;22.50;99.40;;;;;;639826;224;26603;-65
2022/07/01 04:56:45;;;;;;;9.73;8.90;;;22.60;98.50;;;;;;639713;224;26793;-64
2022/07/01 04:59:12;;;;;;;9.68;8.77;;;22.70;99.40;;;;;;639591;219;26553;-65
2022/07/01 05:01:40;;;;;;;10.45;9.38;;;22.90;99.00;;;;;;639507;225;26751;-64
2022/07/01 05:04:07;;;;;;;9.50;8.70;;;22.90;99.00;;;;;;639621;224;26728;-65
2022/07/01 05:06:34;;;;;;;9.13;8.32;;;23.00;98.70;;;;;;639412;224;26510;-65
2022/07/01 05:09:02;;;;;;;9.77;8.88;;;23.00;98.90;;;;;;639214;222;26847;-65
2022/07/01 05:11:29;;;;;;;9.88;8.98;;;23.20;98.60;;;;;;639557;224;26478;-65
2022/07/01 05:13:56;;;;;;;9.85;8.95;;;23.20;98.00;;;;;;639662;223;26749;-65
2022/07/01 05:16:23;;;;;;;9.65;8.75;;;23.30;97.40;;;;;;639664;223;26530;-65
2022/07/01 05:23:58;;;;;;;8.98;8.18;;;23.50;97.60;;;;;;639615;224;26712;-65
2022/07/01 05:26:25;;;;;;;9.52;8.75;;;23.60;96.80;;;;;;639347;224;26540;-65
2022/07/01 05:28:52;;;;;;;9.75;8.95;;;23.80;96.90;;;;;;639220;224;26763;-64
2022/07/01 05:31:19;;;;;;;11.27;10.18;;;24.10;96.30;;;;;;638933;224;26600;-64
2022/07/01 05:33:47;;;;;;;10.30;9.30;;;24.50;94.30;;;;;;638911;225;26803;-65
2022/07/01 05:36:14;;;;;;;10.07;9.18;;;25.00;94.40;;;;;;638972;224;26546;-64
2022/07/01 05:38:41;;;;;;;9.50;8.60;;;25.30;92.70;;;;;;638908;224;26796;-65
2022/07/01 05:41:08;;;;;;;11.73;10.73;;;25.80;92.00;;;;;;638936;224;26591;-65
2022/07/01 05:43:36;;;;;;;11.73;10.73;;;26.00;91.90;;;;;;638910;224;26779;-64
2022/07/01 05:46:04;;;;;;;11.35;10.35;;;26.10;91.10;;;;;;638917;224;26579;-65
2022/07/01 05:48:31;;;;;;;11.70;10.70;;;26.10;90.70;;;;;;638886;224;26613;-65
2022/07/01 05:50:59;;;;;;;10.73;9.77;;;26.10;90.40;;;;;;638861;224;26645;-65
2022/07/01 05:53:27;;;;;;;11.48;10.45;;;26.10;90.20;;;;;;638911;224;26592;-65
2022/07/01 05:55:55;;;;;;;10.65;9.75;;;26.10;90.10;;;;;;638933;224;26573;-65
2022/07/01 05:58:23;;;;;;;11.85;10.65;;;26.00;90.10;;;;;;638921;224;26562;-65
2022/07/01 06:00:51;;;;;;;10.45;9.45;;;26.10;88.90;;;;;;640406;223;26550;-66
2022/07/01 06:03:19;;;;;;;11.45;10.38;;;26.20;88.20;;;;;;640303;223;26530;-65
2022/07/01 06:05:47;;;;;;;11.77;10.65;;;26.10;88.60;;;;;;640052;223;26617;-65
2022/07/01 06:08:16;;;;;;;11.68;10.68;;;26.10;88.60;;;;;;639915;224;26518;-65
2022/07/01 06:10:44;;;;;;;11.68;10.57;;;26.00;88.70;;;;;;639718;223;26502;-65
2022/07/01 06:13:12;;;;;;;11.18;10.27;;;25.90;89.30;;;;;;639698;223;26502;-65
2022/07/01 06:15:40;;;;;;;10.80;9.90;;;25.90;89.30;;;;;;639695;225;26498;-65
2022/07/01 06:18:08;;;;;;;10.15;9.27;;;25.80;90.00;;;;;;639454;223;26492;-65
2022/07/01 06:20:35;;;;;;;11.57;10.38;;;25.90;89.70;;;;;;639278;224;26544;-65
2022/07/01 06:23:03;;;;;;;11.98;10.98;;;26.10;88.90;;;;;;639261;224;26514;-65
2022/07/01 06:25:31;;;;;;;10.82;9.88;;;26.10;88.60;;;;;;639206;224;26494;-65
2022/07/01 06:27:59;;;;;;;11.20;10.10;;;26.10;88.40;;;;;;639172;224;26506;-65
2022/07/01 06:30:27;;;;;;;11.57;10.68;;;26.20;88.50;;;;;;639168;224;26606;-66
2022/07/01 06:32:55;;;;;;;11.38;10.38;;;26.10;88.40;;;;;;639263;224;26824;-66
2022/07/01 06:35:22;;;;;;;11.65;10.65;;;26.10;88.30;;;;;;639270;224;26467;-65
2022/07/01 06:37:49;;;;;;;12.73;10.85;;;25.90;88.40;;;;;;638920;224;26776;-65
2022/07/01 06:40:16;;;;;;;12.48;11.27;;;25.80;88.50;;;;;;638865;223;26594;-65
2022/07/01 06:42:43;;;;;;;12.40;11.18;;;25.50;90.00;;;;;;638965;224;26610;-65
2022/07/01 06:45:11;;;;;;;12.23;11.12;;;25.30;90.30;;;;;;638942;224;26566;-65
2022/07/01 06:47:39;;;;;;;12.07;10.95;;;26.00;88.40;;;;;;638935;219;26565;-65
2022/07/01 06:50:07;;;;;;;12.50;11.15;;;25.90;88.20;;;;;;638911;223;26587;-65
2022/07/01 06:52:35;;;;;;;11.65;10.57;;;25.90;88.20;;;;;;639183;225;26578;-66
2022/07/01 06:55:03;;;;;;;12.07;10.88;;;25.50;90.10;;;;;;638982;225;26881;-67
2022/07/01 06:57:30;;;;;;;12.30;11.20;;;25.40;90.00;;;;;;638881;225;26620;-65
2022/07/01 06:59:57;;;;;;;13.62;12.18;;;25.00;90.70;;;;;;638926;224;26567;-65
2022/07/01 07:02:25;;;;;;;12.55;11.35;;;25.10;91.10;;;;;;638900;223;26555;-65
2022/07/01 07:04:57;;;;;;;12.98;11.75;;;24.90;91.10;;;;;;638949;224;26555;-65
2022/07/01 07:07:21;;;;;;;15.85;11.30;;;25.20;90.70;;;;;;638965;223;26531;-65
2022/07/01 07:09:49;;;;;;;11.75;10.70;;;25.40;89.10;;;;;;638940;224;26590;-66
2022/07/01 07:12:17;;;;;;;12.40;11.30;;;25.70;87.40;;;;;;640251;223;26550;-65
2022/07/01 07:14:45;;;;;;;13.68;11.02;;;25.90;86.70;;;;;;640243;223;26563;-65
2022/07/01 07:17:13;;;;;;;12.15;10.95;;;25.90;86.60;;;;;;639910;225;26780;-65
2022/07/01 07:19:40;;;;;;;13.15;11.95;;;26.20;85.50;;;;;;639910;224;26624;-65
2022/07/01 07:22:07;;;;;;;12.65;11.43;;;26.40;84.90;;;;;;639575;224;26763;-65
2022/07/01 07:24:34;;;;;;;12.80;11.52;;;26.30;83.10;;;;;;639538;224;26526;-65
2022/07/01 07:27:01;;;;;;;12.40;11.20;;;26.10;84.40;;;;;;639542;224;26755;-65
2022/07/01 07:29:29;;;;;;;13.02;11.88;;;25.80;85.40;;;;;;639435;222;26530;-65
2022/07/01 07:31:56;;;;;;;12.45;11.25;;;25.60;84.30;;;;;;639213;224;26525;-65
2022/07/01 07:34:23;;;;;;;13.43;10.90;;;25.60;84.80;;;;;;639311;223;26517;-66
2022/07/01 07:36:51;;;;;;;13.05;11.75;;;25.80;82.10;;;;;;639299;224;26506;-65
2022/07/01 07:39:19;;;;;;;12.93;11.68;;;26.10;77.60;;;;;;639151;224;26591;-65
2022/07/01 07:41:47;;;;;;;12.60;11.50;;;26.30;77.10;;;;;;639185;225;26593;-66
2022/07/01 07:44:15;;;;;;;11.30;10.32;;;26.60;76.00;;;;;;639248;224;26537;-65
2022/07/01 07:46:43;;;;;;;12.27;11.07;;;26.60;76.60;;;;;;639241;224;26579;-65
2022/07/01 07:49:11;;;;;;;10.68;9.77;;;26.60;76.60;;;;;;638913;223;26653;-65
2022/07/01 07:51:39;;;;;;;12.10;11.00;;;26.50;77.70;;;;;;638950;224;26558;-65
2022/07/01 07:54:07;;;;;;;14.38;11.85;;;26.60;77.10;;;;;;638937;223;26579;-65
2022/07/01 07:56:35;;;;;;;11.65;10.65;;;26.70;76.30;;;;;;638975;224;26598;-65
2022/07/01 07:59:04;;;;;;;11.38;10.18;;;26.80;74.90;;;;;;638901;222;26563;-65
2022/07/01 08:01:31;;;;;;;12.32;11.18;;;26.80;74.70;;;;;;638956;224;26573;-66
2022/07/01 08:03:59;;;;;;;11.75;10.60;;;26.80;74.60;;;;;;638909;225;26563;-66
2022/07/01 08:06:26;;;;;;;13.02;11.70;;;26.80;74.50;;;;;;638862;224;26830;-66
2022/07/01 08:08:53;;;;;;;12.18;10.98;;;26.80;74.60;;;;;;638868;225;26806;-65
2022/07/01 08:11:20;;;;;;;12.50;11.30;;;27.20;73.70;;;;;;638925;224;26578;-65
2022/07/01 08:13:48;;;;;;;12.18;11.07;;;27.30;71.90;;;;;;638968;225;26792;-65
2022/07/01 08:16:15;;;;;;;12.25;11.02;;;27.00;71.60;;;;;;638945;223;26559;-65
2022/07/01 08:18:43;;;;;;;11.70;10.68;;;26.70;71.50;;;;;;638925;225;26562;-65
2022/07/01 08:21:11;;;;;;;11.60;10.50;;;26.70;71.80;;;;;;639331;224;26580;-65
2022/07/01 08:23:39;;;;;;;11.27;10.02;;;26.70;72.00;;;;;;640517;223;26548;-66
2022/07/01 08:26:06;;;;;;;11.43;10.30;;;26.70;72.00;;;;;;640469;224;26476;-65
2022/07/01 08:28:33;;;;;;;11.15;10.13;;;26.90;70.90;;;;;;639995;225;26566;-65
2022/07/01 08:31:00;;;;;;;16.17;10.82;;;27.00;71.10;;;;;;639941;222;26560;-63
2022/07/01 08:33:28;;;;;;;11.38;10.05;;;27.20;70.70;;;;;;639557;225;26518;-64
2022/07/01 08:35:56;;;;;;;11.15;10.13;;;27.30;70.10;;;;;;639595;224;26506;-64
2022/07/01 08:38:24;;;;;;;11.32;10.10;;;27.30;70.70;;;;;;639564;224;26510;-64
2022/07/01 08:40:52;;;;;;;11.18;10.18;;;27.40;69.40;;;;;;639460;222;26529;-64
2022/07/01 08:43:20;;;;;;;11.20;9.60;;;27.50;69.60;;;;;;639280;224;26510;-63
2022/07/01 08:45:48;;;;;;;10.48;9.48;;;27.80;69.00;;;;;;639246;224;26507;-63
2022/07/01 08:48:16;;;;;;;11.02;10.00;;;27.70;68.80;;;;;;639094;224;26601;-63
2022/07/01 08:50:44;;;;;;;12.82;9.77;;;27.60;69.10;;;;;;639218;224;26569;-63
2022/07/01 08:53:12;;;;;;;10.70;9.80;;;27.30;69.90;;;;;;639275;224;26527;-64
2022/07/01 08:58:13;;;;;;;10.27;9.38;;;27.00;71.00;;;;;;639087;224;26495;-64
2022/07/01 09:00:40;;;;;;;11.05;10.10;;;26.90;71.30;;;;;;638909;224;26798;-65
2022/07/01 09:03:07;;;;;;;10.13;9.20;;;27.10;71.10;;;;;;638892;223;26531;-64
2022/07/01 09:05:34;;;;;;;9.93;9.02;;;27.20;70.80;;;;;;638907;224;26789;-64
2022/07/01 09:08:02;;;;;;;10.52;9.60;;;27.10;71.40;;;;;;638808;224;26572;-64
2022/07/01 09:10:31;;;;;;;10.60;9.40;;;27.00;71.70;;;;;;638886;223;26606;-64
2022/07/01 09:12:56;;;;;;;9.27;8.50;;;27.00;71.90;;;;;;638681;224;26555;-64
2022/07/01 09:15:25;;;;;;;10.10;9.15;;;27.30;70.60;;;;;;638886;224;26826;-65
2022/07/01 09:17:57;;;;;;;10.90;9.05;;;27.40;69.50;;;;;;638787;224;26567;-63
2022/07/01 09:20:26;;;;;;;9.70;8.80;;;27.40;69.50;;;;;;638492;222;26606;-63
2022/07/01 09:22:58;;;;;;;9.73;8.60;;;27.40;69.20;;;;;;640413;221;26928;-63
2022/07/01 09:25:28;;;;;;;10.40;8.85;;;27.20;68.60;;;;;;641374;221;26519;-64
2022/07/01 09:28:03;;;;;;;10.52;9.32;;;27.30;69.10;;;;;;647360;221;26586;-65
2022/07/01 09:30:32;;;;;;;9.35;8.52;;;27.10;68.30;;;;;;642975;221;26599;-64
2022/07/01 09:33:06;;;;;;;9.13;8.27;;;26.70;69.70;;;;;;642147;221;26788;-66
2022/07/01 09:35:33;;;;;;;9.68;8.68;;;25.90;72.70;;;;;;643097;220;26557;-63
2022/07/01 09:38:00;;;;;;;11.10;9.02;;;25.30;75.30;;;;;;640766;220;27141;-63
2022/07/01 09:40:42;;;;;;;9.18;7.70;;;25.00;76.00;;;;;;644219;220;26608;-63
2022/07/01 09:43:10;;;;;;;7.70;7.00;;;24.50;77.00;;;;;;639538;219;26579;-64
2022/07/01 09:45:38;;;;;;;9.25;6.93;;;24.20;77.90;;;;;;638398;221;26751;-63
2022/07/01 09:48:05;;;;;;;7.80;6.20;;;24.20;77.60;;;;;;643851;221;26903;-63
2022/07/01 09:50:36;;;;;;;6.47;5.50;;;24.10;77.00;;;;;;639291;222;26523;-64
2022/07/01 09:53:00;;;;;;;7.65;5.20;;;23.30;80.00;;;;;;640647;221;26826;-63
2022/07/01 09:55:28;;;;;;;6.55;5.35;;;23.50;79.40;;;;;;641844;221;26574;-64
2022/07/01 09:57:55;;;;;;;6.15;4.85;;;23.40;79.20;;;;;;646532;221;26539;-64
2022/07/01 10:00:25;;;;;;;5.00;4.68;;;23.10;80.10;;;;;;640482;221;26736;-64
2022/07/01 10:02:52;;;;;;;3.90;3.60;;;22.90;80.30;;;;;;641773;221;26616;-64
2022/07/01 10:05:19;;;;;;;8.73;3.70;;;22.40;81.80;;;;;;641193;221;26581;-64
2022/07/01 10:07:58;;;;;;;4.90;3.78;;;21.70;83.90;;;;;;643988;221;26787;-64
2022/07/01 10:10:35;;;;;;;3.58;3.22;;;21.50;85.10;;;;;;643642;221;26768;-63
2022/07/01 10:13:03;;;;;;;3.78;3.03;;;21.30;87.20;;;;;;642608;221;26553;-64
2022/07/01 10:15:31;;;;;;;3.53;2.80;;;21.10;87.90;;;;;;639737;220;26507;-64
2022/07/01 10:17:59;;;;;;;2.35;2.17;;;21.00;88.70;;;;;;641696;221;26545;-65
2022/07/01 10:20:26;;;;;;;2.17;2.08;;;21.00;88.70;;;;;;641697;219;26594;-63
2022/07/01 10:23:00;;;;;;;1.70;1.60;;;21.10;88.40;;;;;;645743;221;26495;-64
2022/07/01 10:25:29;;;;;;;3.17;1.90;;;21.10;88.50;;;;;;642945;221;26558;-64
2022/07/01 10:28:08;;;;;;;1.92;1.70;;;21.20;88.20;;;;;;642353;221;26570;-63
2022/07/01 10:30:35;;;;;;;1.60;1.50;;;20.90;89.40;;;;;;641112;221;27412;-63
2022/07/01 10:33:03;;;;;;;2.15;1.95;;;21.20;89.60;;;;;;639685;221;26515;-63
2022/07/01 10:35:31;;;;;;;3.17;1.62;;;21.00;90.00;;;;;;643294;221;26510;-63
2022/07/01 10:37:59;;;;;;;1.85;1.50;;;20.80;90.20;;;;;;637434;224;26607;-63
2022/07/01 10:40:39;;;;;;;2.50;1.60;;;20.60;90.70;;;;;;641662;221;26592;-64
2022/07/01 10:43:06;;;;;;;1.70;1.52;;;20.60;90.70;;;;;;640809;221;27088;-64
2022/07/01 10:45:51;;;;;;;1.50;1.40;;;20.50;91.10;;;;;;642152;221;26609;-63
2022/07/01 10:48:17;;;;;;;1.77;1.30;;;20.30;91.60;;;;;;639897;220;26572;-63
2022/07/01 10:50:45;;;;;;;1.60;1.50;;;20.30;91.90;;;;;;642953;218;26616;-63
2022/07/01 10:53:12;;;;;;;1.58;1.35;;;20.40;92.00;;;;;;641161;221;26557;-63
2022/07/01 10:55:48;;;;;;;3.72;1.40;;;20.20;92.20;;;;;;642418;221;26836;-63
2022/07/01 10:58:18;;;;;;;1.23;1.12;;;20.00;93.20;;;;;;642864;221;26513;-63
2022/07/01 11:00:44;;;;;;;1.35;1.20;;;20.00;93.20;;;;;;639113;224;26603;-63
2022/07/01 11:03:11;;;;;;;1.27;1.17;;;20.00;93.20;;;;;;649084;221;26808;-63
2022/07/01 11:05:38;;;;;;;1.25;1.25;;;19.90;93.10;;;;;;638248;225;26540;-63
2022/07/01 11:08:06;;;;;;;1.17;1.08;;;19.90;93.10;;;;;;639870;221;26743;-63
2022/07/01 11:10:32;;;;;;;2.65;1.10;;;19.60;93.40;;;;;;643324;221;26580;-63
2022/07/01 11:13:00;;;;;;;0.98;0.95;;;19.50;93.70;;;;;;639508;225;26523;-63
2022/07/01 11:15:28;;;;;;;0.90;0.90;;;19.50;94.00;;;;;;651322;221;26727;-63
2022/07/01 11:17:56;;;;;;;1.35;1.20;;;19.50;94.40;;;;;;646811;221;26499;-63
2022/07/01 11:20:23;;;;;;;2.15;0.90;;;19.40;94.80;;;;;;638039;224;26515;-62
2022/07/01 11:22:51;;;;;;;1.15;0.80;;;19.20;95.30;;;;;;638541;222;26754;-62
2022/07/01 11:25:18;;;;;;;0.95;0.95;;;19.20;95.30;;;;;;638837;221;26772;-62
2022/07/01 11:27:46;;;;;;;0.80;0.80;;;19.30;95.50;;;;;;641907;221;26517;-62
2022/07/01 11:30:14;;;;;;;0.80;0.80;;;19.20;95.70;;;;;;645054;221;27262;-62
2022/07/01 11:32:42;;;;;;;1.33;0.70;;;19.20;96.10;;;;;;640079;221;26497;-62
2022/07/01 11:40:24;;;;;;;1.27;0.90;;;19.20;96.10;;;;;;640243;220;26600;-62
2022/07/01 11:42:52;;;;;;;1.10;0.90;;;19.00;96.30;;;;;;638968;221;26573;-63
2022/07/01 11:45:21;;;;;;;0.60;0.60;;;19.00;99.00;;;;;;637380;224;26524;-63
2022/07/01 11:47:48;;;;;;;0.60;0.60;;;19.00;99.00;;;;;;642392;221;26857;-63
2022/07/01 11:50:16;;;;;;;0.82;0.82;;;18.40;99.90;;;;;;644257;221;26591;-62
2022/07/01 11:52:44;;;;;;;0.65;0.57;;;18.30;99.90;;;;;;640909;221;26560;-62
2022/07/01 11:55:12;;;;;;;0.95;0.57;;;18.40;99.90;;;;;;648530;221;26566;-62
2022/07/01 11:57:40;;;;;;;1.17;0.68;;;18.30;99.90;;;;;;642055;220;26575;-63
2022/07/01 12:00:10;;;;;;;2.58;0.52;;;18.30;99.90;;;;;;646555;220;26939;-63
2022/07/01 12:02:37;;;;;;;1.00;0.60;;;18.10;99.90;;;;;;647316;220;26725;-63
2022/07/01 12:05:05;;;;;;;1.17;0.50;;;18.10;99.90;;;;;;640970;221;26541;-63
2022/07/01 12:07:32;;;;;;;0.75;0.60;;;18.10;99.90;;;;;;652756;220;26932;-62
2022/07/01 12:10:01;;;;;;;1.12;0.30;;;18.10;99.90;;;;;;646757;218;26584;-62
2022/07/01 12:12:27;;;;;;;0.60;0.60;;;18.10;99.90;;;;;;639355;221;27032;-62
2022/07/01 12:14:53;;;;;;;0.60;0.60;;;18.20;99.90;;;;;;639288;224;26600;-62
2022/07/01 12:17:21;;;;;;;0.60;0.60;;;18.40;99.90;;;;;;639125;225;27142;-62
2022/07/01 12:19:49;;;;;;;0.80;0.80;;;19.70;99.90;;;;;;642657;221;26531;-63
2022/07/01 12:22:18;;;;;;;0.80;0.80;;;19.60;99.90;;;;;;645054;221;26506;-63
2022/07/01 12:24:45;;;;;;;1.02;0.93;;;19.80;99.90;;;;;;640150;221;26506;-63
2022/07/01 12:27:12;;;;;;;1.33;1.20;;;20.20;99.90;;;;;;650433;221;26513;-63
2022/07/01 12:29:56;;;;;;;1.30;1.20;;;20.20;99.90;;;;;;637973;221;26581;-63
2022/07/01 12:32:23;;;;;;;1.00;1.00;;;20.10;99.90;;;;;;639101;224;26554;-63
2022/07/01 12:34:52;;;;;;;1.45;1.35;;;19.50;99.90;;;;;;647535;221;26818;-63
2022/07/01 12:37:20;;;;;;;1.50;1.40;;;19.40;99.90;;;;;;638308;221;26519;-63
2022/07/01 12:39:49;;;;;;;1.30;1.23;;;19.70;99.90;;;;;;638191;225;26551;-63
2022/07/01 12:42:23;;;;;;;1.50;1.40;;;19.70;99.90;;;;;;643732;221;26517;-64
2022/07/01 12:44:51;;;;;;;1.35;1.35;;;19.70;99.90;;;;;;641575;221;26484;-63
2022/07/01 12:47:22;;;;;;;1.77;1.67;;;19.80;99.90;;;;;;638843;225;26558;-64
2022/07/01 12:49:50;;;;;;;1.55;1.45;;;19.70;99.30;;;;;;638630;225;26547;-64
2022/07/01 12:52:23;;;;;;;1.58;1.50;;;20.00;98.30;;;;;;638679;225;26559;-64
2022/07/01 12:54:51;;;;;;;1.65;1.55;;;20.00;98.40;;;;;;637715;225;26556;-64
2022/07/01 12:57:19;;;;;;;1.25;1.15;;;20.00;98.20;;;;;;638389;221;26531;-63
2022/07/01 12:59:47;;;;;;;1.67;1.58;;;19.80;98.30;;;;;;637103;224;26563;-63
2022/07/01 13:02:14;;;;;;;1.45;0.90;;;19.80;98.30;;;;;;642382;223;26593;-63